Time;durP1;ratioP1;P1;durP2;ratioP2;P2;SDS_P1;SDS_P2;PMS_P1;PMS_P2;Temp;Humidity;BMP_temperature;BMP_pressure;BME280_temperature;BME280_humidity;BME280_pressure;Samples;Min_cycle;Max_cycle;Signal;HPM_P1;HPM_P2
2023/03/07 00:01:29;;;;;;;22.30;14.40;;;;;;;2.50;82.75;99022.36;106280;1261;73231;-68
2023/03/07 00:04:02;;;;;;;24.10;14.90;;;;;;;2.49;82.56;99022.65;105834;1262;69783;-69
2023/03/07 00:06:29;;;;;;;24.90;16.50;;;;;;;2.50;82.70;99010.73;106008;1260;72478;-69
2023/03/07 00:08:58;;;;;;;22.80;15.10;;;;;;;2.51;82.75;99003.42;105937;1263;61146;-69
2023/03/07 00:11:26;;;;;;;22.70;14.90;;;;;;;2.54;82.57;98997.17;105996;1263;61249;-70
2023/03/07 00:13:54;;;;;;;21.80;14.50;;;;;;;2.53;82.53;98992.36;105734;1258;73913;-71
2023/03/07 00:16:23;;;;;;;23.60;15.10;;;;;;;2.53;82.59;98987.64;105894;1257;69759;-69
2023/03/07 00:18:49;;;;;;;22.70;14.00;;;;;;;2.54;82.34;98981.46;105931;1257;72473;-70
2023/03/07 00:21:20;;;;;;;22.00;13.70;;;;;;;2.56;82.46;98972.66;105948;1257;61442;-69
2023/03/07 00:23:47;;;;;;;21.50;14.20;;;;;;;2.57;82.16;98974.34;106228;1257;61211;-68
2023/03/07 00:26:19;;;;;;;20.10;13.20;;;;;;;2.56;82.48;98965.73;105962;1257;74703;-70
2023/03/07 00:28:48;;;;;;;23.10;14.40;;;;;;;2.56;82.54;98960.81;106038;1257;69760;-68
2023/03/07 00:31:16;;;;;;;21.70;12.90;;;;;;;2.59;82.59;98954.95;105833;1257;71212;-69
2023/03/07 00:33:42;;;;;;;23.70;13.70;;;;;;;2.58;82.91;98947.76;106031;1262;61243;-69
2023/03/07 00:36:19;;;;;;;23.10;14.10;;;;;;;2.58;83.48;98944.35;105994;1262;61442;-69
2023/03/07 00:38:47;;;;;;;22.20;14.10;;;;;;;2.56;83.98;98940.89;105920;1257;72531;-70
2023/03/07 00:41:16;;;;;;;24.90;14.90;;;;;;;2.53;84.10;98941.29;106427;1258;70046;-68
2023/03/07 00:43:45;;;;;;;22.30;14.00;;;;;;;2.53;84.48;98930.13;105998;1257;73070;-70
2023/03/07 00:46:14;;;;;;;22.20;14.50;;;;;;;2.49;85.14;98923.52;105979;1260;62143;-69
2023/03/07 00:48:41;;;;;;;22.60;14.90;;;;;;;2.48;85.21;98920.29;105867;1258;62044;-70
2023/03/07 00:51:12;;;;;;;22.60;14.20;;;;;;;2.45;85.97;98919.61;106089;1257;73490;-70
2023/03/07 00:53:39;;;;;;;24.80;15.10;;;;;;;2.41;86.06;98921.19;105811;1258;70467;-72
2023/03/07 00:56:19;;;;;;;23.20;14.50;;;;;;;2.41;86.40;98906.93;105823;1258;71499;-69
2023/03/07 00:58:46;;;;;;;23.00;14.00;;;;;;;2.41;86.61;98905.19;106134;1258;61467;-70
2023/03/07 01:01:16;;;;;;;22.20;13.60;;;;;;;2.39;86.73;98898.95;106044;1261;61190;-70
2023/03/07 01:03:44;;;;;;;20.70;13.10;;;;;;;2.39;86.85;98895.85;105951;1257;74681;-70
2023/03/07 01:06:13;;;;;;;21.90;13.50;;;;;;;2.39;86.73;98897.40;106046;1261;69814;-69
2023/03/07 01:08:40;;;;;;;22.40;14.20;;;;;;;2.42;86.76;98892.75;106019;1263;73188;-70
2023/03/07 01:11:10;;;;;;;23.60;13.80;;;;;;;2.43;87.06;98887.36;105870;1262;61706;-70
2023/03/07 01:13:37;;;;;;;21.40;13.20;;;;;;;2.44;87.15;98877.48;105988;1258;61669;-69
2023/03/07 01:16:14;;;;;;;21.60;13.70;;;;;;;2.44;87.53;98875.20;106731;1257;73155;-69
2023/03/07 01:18:41;;;;;;;21.10;13.50;;;;;;;2.45;87.47;98867.11;106674;1257;70154;-69
2023/03/07 01:21:20;;;;;;;22.80;13.70;;;;;;;2.46;87.78;98862.23;106346;1258;71136;-72
2023/03/07 01:23:49;;;;;;;21.50;13.00;;;;;;;2.48;88.12;98852.67;106304;1263;61465;-70
2023/03/07 01:26:23;;;;;;;21.60;13.70;;;;;;;2.49;87.96;98845.24;106200;1257;61244;-71
2023/03/07 01:28:51;;;;;;;21.60;13.00;;;;;;;2.48;88.80;98841.96;106064;1257;73278;-70
2023/03/07 01:31:18;;;;;;;23.30;14.10;;;;;;;2.47;88.86;98838.97;106489;1257;70916;-70
2023/03/07 01:33:49;;;;;;;20.70;13.00;;;;;;;2.48;89.17;98836.21;106795;1257;71706;-70
2023/03/07 01:36:29;;;;;;;20.80;13.10;;;;;;;2.46;89.66;98829.78;106516;1257;61270;-70
2023/03/07 01:39:01;;;;;;;20.00;11.90;;;;;;;2.45;90.18;98824.59;106423;1260;61182;-68
2023/03/07 01:41:31;;;;;;;20.40;13.20;;;;;;;2.44;90.61;98819.16;106802;1258;74390;-69
2023/03/07 01:44:04;;;;;;;20.10;13.20;;;;;;;2.43;90.98;98818.77;106570;1260;71677;-70
2023/03/07 01:46:48;;;;;;;20.60;12.50;;;;;;;2.41;91.23;98808.86;106759;1260;72639;-69
2023/03/07 01:49:32;;;;;;;19.90;12.90;;;;;;;2.40;91.31;98807.98;106703;1257;61635;-69
2023/03/07 01:52:04;;;;;;;17.50;11.00;;;;;;;2.39;91.77;98803.93;106428;1258;61274;-70
2023/03/07 01:54:32;;;;;;;21.10;12.90;;;;;;;2.37;92.25;98796.77;106744;1259;74381;-70
2023/03/07 01:57:02;;;;;;;19.10;12.10;;;;;;;2.34;92.47;98794.47;106455;1262;70041;-70
2023/03/07 01:59:32;;;;;;;20.90;12.10;;;;;;;2.34;92.80;98782.79;106642;1258;70546;-70
2023/03/07 02:02:06;;;;;;;18.90;11.80;;;;;;;2.31;93.39;98789.63;106582;1264;61232;-70
2023/03/07 02:04:42;;;;;;;20.80;12.40;;;;;;;2.28;93.45;98778.74;106594;1260;61733;-68
2023/03/07 02:07:12;;;;;;;19.10;11.50;;;;;;;2.26;93.73;98776.86;105974;1263;73738;-69
2023/03/07 02:09:40;;;;;;;17.90;10.80;;;;;;;2.27;94.34;98778.27;107229;1260;69768;-69
2023/03/07 02:12:10;;;;;;;20.80;12.20;;;;;;;2.20;95.05;98773.05;106919;1259;71725;-70
2023/03/07 02:14:37;;;;;;;18.00;11.70;;;;;;;2.16;95.13;98771.37;106676;1260;61404;-69
2023/03/07 02:17:03;;;;;;;18.30;11.80;;;;;;;2.14;95.68;98763.27;105843;1257;61196;-69
2023/03/07 02:19:41;;;;;;;18.50;11.60;;;;;;;2.11;96.12;98766.63;105733;1258;73534;-72
2023/03/07 02:22:16;;;;;;;18.50;11.60;;;;;;;2.07;96.46;98762.98;105982;1261;70186;-70
2023/03/07 02:24:57;;;;;;;19.60;11.80;;;;;;;2.03;96.96;98757.20;105953;1262;71729;-70
2023/03/07 02:27:30;;;;;;;18.20;11.30;;;;;;;2.00;97.78;98754.13;105798;1262;61877;-69
2023/03/07 02:29:57;;;;;;;17.70;11.40;;;;;;;1.97;98.25;98751.27;106323;1258;61710;-67
2023/03/07 02:32:26;;;;;;;20.40;12.20;;;;;;;1.94;98.35;98755.39;105952;1257;74424;-70
2023/03/07 02:35:13;;;;;;;19.70;12.00;;;;;;;1.93;98.76;98752.47;105839;1257;69838;-70
2023/03/07 02:37:43;;;;;;;19.70;11.70;;;;;;;1.90;99.38;98750.50;106061;1257;72434;-69
2023/03/07 02:40:15;;;;;;;16.90;10.30;;;;;;;1.88;99.63;98752.92;105907;1257;61790;-69
2023/03/07 02:42:56;;;;;;;16.70;10.20;;;;;;;1.88;99.86;98750.15;105687;1257;61715;-70
2023/03/07 02:45:23;;;;;;;20.20;11.10;;;;;;;1.86;100.00;98752.09;106411;1259;73553;-69
2023/03/07 02:48:13;;;;;;;18.80;10.90;;;;;;;1.87;100.00;98746.17;106050;1257;71103;-69
2023/03/07 02:50:42;;;;;;;21.50;11.20;;;;;;;1.85;100.00;98746.30;106255;1258;72156;-72
2023/03/07 02:53:14;;;;;;;20.70;10.50;;;;;;;1.87;100.00;98741.75;106121;1257;61420;-70
2023/03/07 02:55:44;;;;;;;15.80;9.50;;;;;;;1.88;100.00;98742.31;105851;1257;61164;-72
2023/03/07 02:58:11;;;;;;;16.20;9.20;;;;;;;1.87;100.00;98737.02;106010;1257;74764;-70
2023/03/07 03:00:47;;;;;;;14.80;9.00;;;;;;;1.85;100.00;98733.77;105887;1258;71872;-71
2023/03/07 03:03:16;;;;;;;15.80;9.50;;;;;;;1.87;100.00;98728.33;105981;1257;71850;-71
2023/03/07 03:05:43;;;;;;;14.80;9.30;;;;;;;1.86;100.00;98726.53;106234;1257;61316;-70
2023/03/07 03:08:11;;;;;;;16.00;9.20;;;;;;;1.83;100.00;98720.73;105927;1257;61467;-70
2023/03/07 03:10:44;;;;;;;18.70;9.00;;;;;;;1.83;100.00;98723.00;105888;1263;73498;-70
2023/03/07 03:13:18;;;;;;;21.20;10.20;;;;;;;1.84;100.00;98722.43;105926;1257;70120;-70
2023/03/07 03:15:45;;;;;;;24.00;11.50;;;;;;;1.85;100.00;98725.55;105659;1258;71568;-70
2023/03/07 03:18:17;;;;;;;24.60;12.00;;;;;;;1.89;100.00;98721.73;105781;1257;61997;-71
2023/03/07 03:20:47;;;;;;;27.20;12.90;;;;;;;1.93;100.00;98714.25;105984;1257;61389;-70
2023/03/07 03:23:14;;;;;;;25.70;12.20;;;;;;;1.96;100.00;98713.59;106265;1261;74387;-68
2023/03/07 03:25:41;;;;;;;35.20;14.70;;;;;;;1.98;100.00;98710.84;105981;1264;69734;-72
2023/03/07 03:28:08;;;;;;;18.70;9.80;;;;;;;2.03;100.00;98708.45;106045;1257;72259;-70
2023/03/07 03:30:34;;;;;;;17.90;9.20;;;;;;;2.07;100.00;98708.00;106116;1260;61357;-70
2023/03/07 03:33:05;;;;;;;21.90;10.80;;;;;;;2.10;100.00;98708.52;106064;1257;61178;-73
2023/03/07 03:35:35;;;;;;;33.20;13.50;;;;;;;2.16;100.00;98710.65;105903;1257;74745;-70
2023/03/07 03:38:01;;;;;;;25.10;11.40;;;;;;;2.20;100.00;98707.30;105930;1257;70032;-72
2023/03/07 03:40:28;;;;;;;19.90;10.00;;;;;;;2.25;100.00;98701.84;106061;1257;72739;-71
2023/03/07 03:42:58;;;;;;;28.60;13.10;;;;;;;2.31;100.00;98703.77;106485;1258;61270;-70
2023/03/07 03:45:27;;;;;;;27.40;11.70;;;;;;;2.36;100.00;98706.17;105978;1262;61263;-70
2023/03/07 03:48:04;;;;;;;34.00;14.50;;;;;;;2.40;100.00;98704.65;105894;1258;73470;-71
2023/03/07 03:50:37;;;;;;;33.50;15.20;;;;;;;2.44;100.00;98707.55;105823;1258;70945;-70
2023/03/07 03:53:07;;;;;;;31.20;13.80;;;;;;;2.49;100.00;98700.21;106079;1258;73356;-70
2023/03/07 03:55:34;;;;;;;22.60;11.10;;;;;;;2.51;100.00;98703.88;105834;1258;61578;-70
2023/03/07 03:58:03;;;;;;;25.40;11.50;;;;;;;2.53;100.00;98692.97;105936;1261;61212;-71
2023/03/07 04:00:32;;;;;;;25.30;12.80;;;;;;;2.56;100.00;98690.77;106551;1257;73129;-70
2023/03/07 04:02:59;;;;;;;37.70;16.50;;;;;;;2.58;100.00;98697.52;105773;1258;69962;-74
2023/03/07 04:05:32;;;;;;;32.30;13.90;;;;;;;2.60;100.00;98694.59;105904;1259;71356;-71
2023/03/07 04:07:59;;;;;;;27.20;12.40;;;;;;;2.61;100.00;98692.02;105760;1260;61709;-70
2023/03/07 04:10:26;;;;;;;26.60;12.40;;;;;;;2.64;100.00;98696.08;105712;1258;62630;-71
2023/03/07 04:12:53;;;;;;;21.40;9.40;;;;;;;2.67;100.00;98694.13;106074;1257;74649;-71
2023/03/07 04:15:20;;;;;;;20.70;9.90;;;;;;;2.68;100.00;98690.95;106049;1258;69631;-70
2023/03/07 04:17:50;;;;;;;20.60;10.60;;;;;;;2.70;100.00;98688.94;106341;1257;72482;-70
2023/03/07 04:20:17;;;;;;;30.00;12.80;;;;;;;2.71;100.00;98689.72;106098;1259;61698;-71
2023/03/07 04:22:44;;;;;;;20.50;10.10;;;;;;;2.73;100.00;98689.88;105924;1257;61591;-72
2023/03/07 04:25:11;;;;;;;25.90;11.20;;;;;;;2.75;100.00;98681.38;106078;1258;74442;-72
2023/03/07 04:27:43;;;;;;;21.80;10.90;;;;;;;2.76;100.00;98685.98;106034;1258;68774;-70
2023/03/07 04:30:10;;;;;;;18.40;10.10;;;;;;;2.79;100.00;98683.57;106047;1257;71517;-71
2023/03/07 04:32:45;;;;;;;16.60;9.00;;;;;;;2.80;100.00;98687.30;105618;1257;61273;-70
2023/03/07 04:35:12;;;;;;;22.20;10.90;;;;;;;2.81;100.00;98683.33;106363;1261;61202;-71
2023/03/07 04:37:39;;;;;;;25.50;10.80;;;;;;;2.83;100.00;98676.15;105938;1259;74443;-75
2023/03/07 04:40:06;;;;;;;21.00;10.80;;;;;;;2.83;100.00;98668.23;106276;1257;70943;-70
2023/03/07 04:42:39;;;;;;;26.10;12.30;;;;;;;2.84;100.00;98660.67;105929;1262;71739;-72
2023/03/07 04:45:07;;;;;;;16.90;9.40;;;;;;;2.87;100.00;98658.92;105857;1258;61372;-72
2023/03/07 04:47:37;;;;;;;14.60;8.50;;;;;;;2.87;100.00;98658.75;106138;1257;61469;-74
2023/03/07 04:50:08;;;;;;;9.60;7.20;;;;;;;2.88;100.00;98659.39;105959;1263;74514;-70
2023/03/07 04:52:37;;;;;;;10.60;7.60;;;;;;;2.87;100.00;98648.30;106329;1263;72516;-70
2023/03/07 04:55:05;;;;;;;13.20;8.30;;;;;;;2.87;100.00;98653.15;105779;1259;71682;-70
2023/03/07 04:57:37;;;;;;;12.10;8.90;;;;;;;2.89;100.00;98651.60;105877;1262;61324;-70
2023/03/07 05:00:08;;;;;;;11.50;8.20;;;;;;;2.88;100.00;98649.21;106097;1259;61777;-71
2023/03/07 05:03:00;;;;;;;10.90;8.30;;;;;;;2.89;100.00;98653.27;105713;1263;73471;-74
2023/03/07 05:05:28;;;;;;;11.70;8.50;;;;;;;2.89;100.00;98655.88;106059;1257;73471;-70
2023/03/07 05:07:55;;;;;;;11.60;8.10;;;;;;;2.90;100.00;98651.65;105902;1258;71130;-70
2023/03/07 05:10:22;;;;;;;14.20;8.90;;;;;;;2.90;100.00;98647.37;106144;1259;61265;-70
2023/03/07 05:12:59;;;;;;;14.30;8.80;;;;;;;2.92;100.00;98653.34;106081;1262;61995;-70
2023/03/07 05:15:26;;;;;;;10.70;7.80;;;;;;;2.92;100.00;98653.71;106179;1257;73797;-69
2023/03/07 05:17:53;;;;;;;9.40;6.50;;;;;;;2.92;100.00;98660.14;105896;1259;70893;-73
2023/03/07 05:20:23;;;;;;;10.40;6.70;;;;;;;2.91;100.00;98666.52;106055;1257;72510;-71
2023/03/07 05:22:53;;;;;;;8.40;6.20;;;;;;;2.87;100.00;98676.71;106032;1257;61372;-69
2023/03/07 05:25:32;;;;;;;10.70;6.40;;;;;;;2.80;100.00;98678.89;105802;1259;61359;-73
2023/03/07 05:27:59;;;;;;;9.50;6.50;;;;;;;2.71;100.00;98687.92;106424;1259;73554;-71
2023/03/07 05:30:29;;;;;;;10.40;7.60;;;;;;;2.64;100.00;98718.83;106083;1260;70555;-72
2023/03/07 05:32:58;;;;;;;5.70;3.80;;;;;;;2.38;100.00;98727.27;105927;1260;71214;-72
2023/03/07 05:35:34;;;;;;;6.30;3.20;;;;;;;2.13;100.00;98713.95;105806;1260;61387;-71
2023/03/07 05:38:04;;;;;;;6.50;3.20;;;;;;;1.99;100.00;98708.35;105771;1260;61347;-73
2023/03/07 05:40:30;;;;;;;4.70;2.70;;;;;;;1.88;100.00;98711.61;105841;1260;73642;-72
2023/03/07 05:43:00;;;;;;;4.60;1.60;;;;;;;1.81;100.00;98712.03;105987;1259;70286;-71
2023/03/07 05:45:27;;;;;;;3.00;1.50;;;;;;;1.66;100.00;98724.64;106042;1260;71131;-70
2023/03/07 05:47:58;;;;;;;3.00;1.50;;;;;;;1.56;100.00;98717.87;105815;1260;61359;-70
2023/03/07 05:50:25;;;;;;;3.20;1.30;;;;;;;1.50;100.00;98713.86;105604;1259;61242;-71
2023/03/07 05:52:54;;;;;;;3.80;1.40;;;;;;;1.44;100.00;98708.41;106190;1259;75334;-71
2023/03/07 05:55:21;;;;;;;5.40;1.60;;;;;;;1.39;100.00;98700.87;105850;1260;70255;-71
2023/03/07 05:57:54;;;;;;;5.90;1.30;;;;;;;1.36;100.00;98698.95;105923;1258;72437;-69
2023/03/07 06:00:21;;;;;;;4.40;1.10;;;;;;;1.36;100.00;98692.21;106077;1262;61266;-70
2023/03/07 06:02:51;;;;;;;3.90;1.10;;;;;;;1.34;100.00;98688.36;106410;1259;62358;-70
2023/03/07 06:05:39;;;;;;;4.00;1.50;;;;;;;1.37;100.00;98690.20;105923;1260;74447;-69
2023/03/07 06:08:07;;;;;;;4.10;1.50;;;;;;;1.37;100.00;98686.11;105869;1260;69953;-69
2023/03/07 06:10:36;;;;;;;3.90;1.30;;;;;;;1.41;100.00;98684.48;105960;1261;72454;-72
2023/03/07 06:13:15;;;;;;;4.20;1.10;;;;;;;1.44;100.00;98690.66;105967;1259;61154;-68
2023/03/07 06:15:48;;;;;;;5.60;1.50;;;;;;;1.50;100.00;98680.96;105909;1258;61260;-73
2023/03/07 06:18:20;;;;;;;2.90;1.00;;;;;;;1.53;100.00;98668.18;106211;1258;74995;-76
2023/03/07 06:20:55;;;;;;;4.70;1.20;;;;;;;1.60;100.00;98671.99;106360;1259;70904;-77
2023/03/07 06:23:22;;;;;;;5.30;1.30;;;;;;;1.68;100.00;98671.73;105890;1260;71188;-78
2023/03/07 06:25:49;;;;;;;4.00;1.10;;;;;;;1.73;100.00;98664.31;106015;1260;62532;-78
2023/03/07 06:28:19;;;;;;;4.40;1.20;;;;;;;1.77;100.00;98664.89;105961;1259;61436;-76
2023/03/07 06:30:57;;;;;;;8.10;1.30;;;;;;;1.81;100.00;98664.45;106015;1262;74785;-78
2023/03/07 06:33:46;;;;;;;15.20;4.90;;;;;;;1.87;100.00;98658.59;105913;1259;70964;-77
2023/03/07 06:36:21;;;;;;;7.20;1.70;;;;;;;1.94;100.00;98663.23;106536;1258;72627;-78
2023/03/07 06:38:52;;;;;;;4.40;1.30;;;;;;;1.98;100.00;98665.09;105847;1259;61744;-77
2023/03/07 06:41:22;;;;;;;6.80;2.10;;;;;;;2.02;100.00;98665.30;106399;1261;61644;-77
2023/03/07 06:44:06;;;;;;;8.90;2.40;;;;;;;2.10;99.90;98665.57;105849;1260;74123;-78
2023/03/07 06:46:33;;;;;;;15.50;4.40;;;;;;;2.13;99.26;98664.66;106751;1259;69846;-78
2023/03/07 06:49:15;;;;;;;16.80;5.40;;;;;;;2.19;99.07;98667.15;106405;1260;71438;-80
2023/03/07 06:51:48;;;;;;;9.10;3.20;;;;;;;2.24;98.84;98671.64;106357;1260;61193;-79
2023/03/07 06:55:00;;;;;;;5.80;1.80;;;;;;;2.29;97.39;98668.30;106259;1260;61286;-79
2023/03/07 06:57:32;;;;;;;5.60;1.40;;;;;;;2.33;94.61;98673.78;106164;1260;73876;-78
2023/03/07 07:00:02;;;;;;;4.90;1.00;;;;;;;2.38;93.63;98679.52;106292;1259;71015;-78
2023/03/07 07:02:30;;;;;;;3.50;1.10;;;;;;;2.40;92.22;98679.92;106237;1259;72810;-78
2023/03/07 07:04:59;;;;;;;4.20;1.20;;;;;;;2.42;91.01;98674.30;106077;1260;61366;-77
2023/03/07 07:07:27;;;;;;;3.80;1.20;;;;;;;2.44;90.20;98677.35;105882;1260;61237;-79
2023/03/07 07:09:54;;;;;;;4.80;1.20;;;;;;;2.47;90.21;98673.38;106089;1261;74714;-78
2023/03/07 07:12:22;;;;;;;3.50;0.90;;;;;;;2.48;89.94;98673.45;106270;1267;70509;-79
2023/03/07 07:15:01;;;;;;;3.50;1.00;;;;;;;2.52;89.62;98672.17;106149;1262;71120;-78
2023/03/07 07:17:37;;;;;;;4.40;1.00;;;;;;;2.53;89.63;98672.89;106148;1259;61881;-79
2023/03/07 07:20:06;;;;;;;3.20;0.90;;;;;;;2.53;89.31;98676.38;106038;1260;61310;-79
2023/03/07 07:22:34;;;;;;;3.20;1.10;;;;;;;2.55;89.12;98679.19;106064;1260;73414;-78
2023/03/07 07:25:03;;;;;;;3.00;0.80;;;;;;;2.58;89.45;98685.38;105988;1260;70120;-78
2023/03/07 07:27:30;;;;;;;7.00;1.70;;;;;;;2.58;89.19;98679.53;105998;1260;72407;-78
2023/03/07 07:29:57;;;;;;;3.60;1.10;;;;;;;2.60;89.23;98686.10;106393;1262;61337;-78
2023/03/07 07:32:24;;;;;;;3.90;1.20;;;;;;;2.63;88.82;98690.27;105973;1263;61325;-78
2023/03/07 07:34:54;;;;;;;3.70;1.50;;;;;;;2.66;88.61;98696.72;106018;1259;73192;-79
2023/03/07 07:37:20;;;;;;;2.80;1.10;;;;;;;2.68;88.24;98698.26;106125;1260;71189;-77
2023/03/07 07:39:51;;;;;;;4.40;1.10;;;;;;;2.72;88.27;98694.53;106464;1258;72817;-78
2023/03/07 07:42:18;;;;;;;3.60;1.40;;;;;;;2.74;87.70;98696.02;105950;1258;61254;-79
2023/03/07 07:44:59;;;;;;;4.00;1.40;;;;;;;2.74;88.35;98696.99;106145;1260;61506;-80
2023/03/07 07:47:27;;;;;;;4.90;1.20;;;;;;;2.76;87.33;98696.79;106576;1259;73422;-80
2023/03/07 07:49:56;;;;;;;3.60;1.10;;;;;;;2.81;87.56;98696.55;105941;1260;71340;-77
2023/03/07 07:52:23;;;;;;;3.30;1.30;;;;;;;2.83;87.93;98694.12;105924;1262;71518;-77
2023/03/07 07:54:51;;;;;;;2.30;1.10;;;;;;;2.88;87.36;98696.70;106149;1259;61204;-77
2023/03/07 07:57:18;;;;;;;4.10;1.40;;;;;;;2.89;87.43;98703.37;106093;1265;62665;-77
2023/03/07 07:59:48;;;;;;;5.60;1.50;;;;;;;2.93;87.60;98702.61;106082;1260;74790;-75
2023/03/07 08:02:15;;;;;;;3.30;1.50;;;;;;;2.96;87.18;98705.06;106330;1262;69103;-76
2023/03/07 08:04:42;;;;;;;4.20;1.40;;;;;;;2.98;87.42;98710.30;106016;1260;71134;-75
2023/03/07 08:07:09;;;;;;;5.80;1.60;;;;;;;3.00;87.88;98705.23;106109;1260;61289;-77
2023/03/07 08:09:37;;;;;;;5.70;1.40;;;;;;;2.98;87.43;98694.16;106215;1259;61138;-75
2023/03/07 08:12:04;;;;;;;5.20;1.60;;;;;;;2.97;87.18;98702.18;105968;1260;74766;-76
2023/03/07 08:14:33;;;;;;;4.90;1.90;;;;;;;2.94;86.73;98703.38;105857;1260;70929;-77
2023/03/07 08:17:00;;;;;;;4.50;1.80;;;;;;;2.92;86.78;98706.90;106027;1259;72428;-76
2023/03/07 08:19:27;;;;;;;3.00;1.30;;;;;;;2.91;87.05;98699.50;106067;1260;61735;-75
2023/03/07 08:21:54;;;;;;;4.30;1.50;;;;;;;2.90;86.90;98696.63;106211;1258;61935;-76
2023/03/07 08:24:21;;;;;;;4.10;1.80;;;;;;;2.91;86.92;98698.86;106017;1259;74448;-76
2023/03/07 08:26:58;;;;;;;4.20;1.60;;;;;;;2.93;87.32;98703.68;105828;1260;71187;-76
2023/03/07 08:29:25;;;;;;;3.40;1.20;;;;;;;2.87;86.40;98703.75;106110;1260;71153;-75
2023/03/07 08:31:54;;;;;;;4.90;1.60;;;;;;;2.82;86.62;98716.88;105874;1260;61299;-75
2023/03/07 08:34:30;;;;;;;4.50;1.80;;;;;;;2.77;87.61;98721.27;106067;1259;61297;-75
2023/03/07 08:37:00;;;;;;;5.50;1.40;;;;;;;2.74;88.43;98717.41;105892;1264;73220;-76
2023/03/07 08:39:27;;;;;;;4.80;1.50;;;;;;;2.71;88.64;98716.04;106165;1260;69735;-77
2023/03/07 08:41:55;;;;;;;4.30;1.40;;;;;;;2.67;88.88;98722.91;106345;1260;72193;-75
2023/03/07 08:44:22;;;;;;;3.20;1.00;;;;;;;2.62;88.98;98718.14;106078;1262;61368;-75
2023/03/07 08:46:50;;;;;;;7.00;1.20;;;;;;;2.54;89.25;98719.92;105760;1260;61378;-76
2023/03/07 08:49:17;;;;;;;5.40;1.50;;;;;;;2.52;89.95;98721.67;104257;1260;2865353;-77
2023/03/07 08:51:47;;;;;;;3.90;1.10;;;;;;;2.48;89.66;98726.13;106057;1260;69988;-76
2023/03/07 08:54:16;;;;;;;3.40;1.20;;;;;;;2.47;89.48;98725.06;106101;1260;71388;-78
2023/03/07 08:56:44;;;;;;;4.70;1.00;;;;;;;2.44;89.83;98720.46;105958;1260;61277;-78
2023/03/07 08:59:13;;;;;;;5.00;1.00;;;;;;;2.43;90.44;98725.57;106339;1260;61248;-77
2023/03/07 09:01:42;;;;;;;3.70;0.90;;;;;;;2.38;90.01;98723.56;106449;1259;73204;-78
2023/03/07 09:04:09;;;;;;;3.60;0.80;;;;;;;2.36;90.85;98719.75;106010;1259;70091;-77
2023/03/07 09:06:39;;;;;;;2.00;0.90;;;;;;;2.32;91.37;98727.41;106029;1259;71561;-78
2023/03/07 09:09:12;;;;;;;4.00;1.10;;;;;;;2.23;91.69;98731.21;106207;1260;61733;-76
2023/03/07 09:11:42;;;;;;;3.90;1.00;;;;;;;2.17;92.45;98734.08;105980;1264;61990;-75
2023/03/07 09:14:09;;;;;;;4.50;1.00;;;;;;;2.12;93.07;98732.21;105926;1260;75125;-78
2023/03/07 09:16:39;;;;;;;4.30;1.00;;;;;;;2.05;93.26;98733.86;106079;1260;69029;-76
2023/03/07 09:19:09;;;;;;;6.00;0.80;;;;;;;2.01;94.01;98734.76;106078;1262;72659;-76
2023/03/07 09:21:36;;;;;;;4.20;1.10;;;;;;;1.95;94.63;98733.36;106187;1260;61807;-76
2023/03/07 09:24:06;;;;;;;5.50;1.30;;;;;;;1.89;94.80;98735.77;106044;1259;61151;-75
2023/03/07 09:27:15;;;;;;;4.70;1.00;;;;;;;1.86;95.35;98736.27;105724;1260;74468;-74
2023/03/07 09:29:46;;;;;;;4.30;0.80;;;;;;;1.79;95.75;98736.45;105907;1259;70492;-75
2023/03/07 09:32:13;;;;;;;4.40;0.80;;;;;;;1.76;96.54;98729.13;106109;1264;71454;-74
2023/03/07 09:34:40;;;;;;;4.40;0.90;;;;;;;1.78;97.29;98732.81;105992;1260;62039;-76
2023/03/07 09:37:07;;;;;;;3.00;0.90;;;;;;;1.76;97.57;98730.08;106047;1260;61160;-76
2023/03/07 09:39:33;;;;;;;4.00;1.00;;;;;;;1.76;97.84;98730.91;106501;1260;74479;-78
2023/03/07 09:42:26;;;;;;;3.50;0.70;;;;;;;1.76;97.77;98730.45;105982;1260;69972;-75
2023/03/07 09:45:29;;;;;;;5.30;0.90;;;;;;;1.72;98.06;98733.08;105989;1259;72460;-76
2023/03/07 09:48:00;;;;;;;2.80;0.90;;;;;;;1.69;98.47;98728.91;105488;1266;61993;-78
2023/03/07 09:50:48;;;;;;;4.30;1.00;;;;;;;1.65;98.43;98728.63;105686;1260;61451;-77
2023/03/07 09:53:50;;;;;;;3.10;0.70;;;;;;;1.60;98.58;98737.00;106486;1259;73777;-76
2023/03/07 09:56:38;;;;;;;8.10;1.20;;;;;;;1.54;98.95;98733.09;106613;1259;70664;-78
2023/03/07 09:59:30;;;;;;;2.70;0.90;;;;;;;1.50;99.30;98733.36;106411;1262;71423;-77
2023/03/07 10:02:35;;;;;;;4.60;1.20;;;;;;;1.47;99.48;98736.63;106821;1262;61128;-75
2023/03/07 10:05:25;;;;;;;3.30;1.10;;;;;;;1.39;99.78;98730.23;106500;1259;61623;-75
2023/03/07 10:07:53;;;;;;;5.20;0.90;;;;;;;1.36;99.99;98735.39;106348;1260;74682;-76
2023/03/07 10:10:52;;;;;;;4.00;0.80;;;;;;;1.38;100.00;98736.00;106195;1260;71008;-75
2023/03/07 10:13:28;;;;;;;2.50;1.00;;;;;;;1.41;100.00;98733.10;106541;1260;73489;-76
2023/03/07 10:16:00;;;;;;;4.80;1.10;;;;;;;1.40;100.00;98733.52;106253;1259;61915;-76
2023/03/07 10:19:01;;;;;;;;;;;;;;;;;;;;;
2023/03/07 10:21:48;;;;;;;3.80;0.90;;;;;;;1.46;100.00;98736.35;106610;1258;74733;-76
2023/03/07 10:24:29;;;;;;;3.90;1.00;;;;;;;1.45;100.00;98734.75;106310;1260;70637;-77
2023/03/07 10:27:03;;;;;;;4.60;0.90;;;;;;;1.41;100.00;98739.17;106351;1260;71270;-76
2023/03/07 10:29:49;;;;;;;5.50;1.10;;;;;;;1.43;100.00;98739.14;106258;1262;61212;-74
2023/03/07 10:32:37;;;;;;;3.30;0.90;;;;;;;1.45;100.00;98738.62;106580;1259;60436;-77
2023/03/07 10:35:10;;;;;;;4.20;1.20;;;;;;;1.48;100.00;98739.76;106803;1260;73270;-76
2023/03/07 10:38:12;;;;;;;3.80;0.80;;;;;;;1.46;100.00;98746.20;107212;1260;70240;-77
2023/03/07 10:40:49;;;;;;;4.10;0.90;;;;;;;1.47;100.00;98746.91;106380;1260;72442;-75
2023/03/07 10:43:39;;;;;;;3.70;1.00;;;;;;;1.46;100.00;98741.86;106446;1258;61369;-76
2023/03/07 10:46:30;;;;;;;3.50;1.10;;;;;;;1.45;100.00;98744.65;106382;1260;61326;-75
2023/03/07 10:49:21;;;;;;;3.60;1.00;;;;;;;1.43;100.00;98748.21;106165;1262;74447;-77
2023/03/07 10:52:28;;;;;;;2.30;1.00;;;;;;;1.42;100.00;98748.82;105933;1262;69616;-73
2023/03/07 10:55:34;;;;;;;2.80;0.80;;;;;;;1.40;100.00;98753.61;106341;1259;73590;-73
2023/03/07 10:58:16;;;;;;;5.50;1.10;;;;;;;1.41;100.00;98752.92;106441;1258;62251;-75
2023/03/07 11:00:43;;;;;;;3.30;1.10;;;;;;;1.40;100.00;98747.67;106860;1259;61155;-75
2023/03/07 11:04:11;;;;;;;3.80;0.90;;;;;;;1.38;100.00;98755.04;106201;1259;73033;-74
2023/03/07 11:06:50;;;;;;;5.30;1.00;;;;;;;1.42;100.00;98747.59;105936;1268;70027;-75
2023/03/07 11:10:15;;;;;;;3.30;1.10;;;;;;;1.45;100.00;98741.75;106174;1262;72384;-75
2023/03/07 11:12:51;;;;;;;2.60;0.90;;;;;;;1.52;100.00;98740.10;105996;1259;61214;-74
2023/03/07 11:15:22;;;;;;;4.80;1.30;;;;;;;1.55;100.00;98740.17;106787;1258;61350;-75
2023/03/07 11:17:51;;;;;;;4.00;0.90;;;;;;;1.58;100.00;98739.29;106509;1262;74365;-75
2023/03/07 11:20:22;;;;;;;2.90;1.00;;;;;;;1.60;100.00;98734.91;106719;1258;69894;-75
2023/03/07 11:23:06;;;;;;;3.60;1.00;;;;;;;1.62;100.00;98735.29;106718;1259;72688;-76
2023/03/07 11:25:35;;;;;;;5.00;1.40;;;;;;;1.62;100.00;98738.66;106840;1260;61458;-74
2023/03/07 11:28:25;;;;;;;2.90;1.30;;;;;;;1.65;100.00;98735.58;106563;1260;61215;-75
2023/03/07 11:30:56;;;;;;;3.40;1.20;;;;;;;1.67;100.00;98732.26;106130;1262;74512;-75
2023/03/07 11:33:30;;;;;;;4.20;1.20;;;;;;;1.74;100.00;98731.36;106214;1262;69860;-77
2023/03/07 11:36:19;;;;;;;;;;;;;;;;;;;;;
2023/03/07 11:39:12;;;;;;;4.40;1.30;;;;;;;1.93;100.00;98732.56;106193;1258;62653;-78
2023/03/07 11:41:47;;;;;;;2.00;1.00;;;;;;;1.95;100.00;98735.29;105823;1259;61852;-75
2023/03/07 11:44:19;;;;;;;3.30;0.70;;;;;;;2.00;100.00;98741.21;105878;1262;75452;-77
2023/03/07 11:47:18;;;;;;;3.20;1.10;;;;;;;1.97;100.00;98735.63;106332;1260;71426;-76
2023/03/07 11:49:56;;;;;;;3.10;1.10;;;;;;;1.97;100.00;98740.58;106256;1260;72416;-75
2023/03/07 11:52:35;;;;;;;3.00;1.20;;;;;;;1.97;100.00;98741.15;105908;1259;61369;-75